Manila, Arkansas
Current Conditions -  °F | °C
As of 7:53 AM on Saturday 20 Dec 2014 (Local Time) from KHKA Reporting Station
Overcast Overcast  
Wind Chill: 34°   Ceiling: 6500
Heat Index: 38°   Visibility: 8mi
Dew Point: 34°   Wind: 5mph
Humidity: 86%   Direction: 60°ENE
Pressure: 30.29"   Gusts: NA
Location:  35.88°N, 90.17°W
Report Text: KHKA 201353Z AUTO 06004KT 8SM OVC065 03/01 A3029 RMK AO2 SLP258 T00330011
Loading
Personal Weather Stations






























Interactive Weather Map New forecast layout! Learn more

10-Day Weather Forecast

Advertisements
Track Severe Weather on mobile